Terminal Aerodrome Forecast
Issued by NWS North Platte, NE

Home | Current Version | Previous Version | Text Only | Print | Product List | Glossary On
Versions: 1 2 3 4 5 6 7 8 9 10 11 12 13 14
000
FTUS43 KLBF 230524
TAFVTN
TAF
KVTN 230524Z 2306/2406 18013KT P6SM SCT200 WS015/19038KT
     FM231200 20012G18KT P6SM SCT200
     FM231600 26015G22KT P6SM SKC
     FM231900 30011G18KT P6SM SKC
     FM232100 34015G22KT P6SM SCT200
     FM240100 35013KT P6SM SCT200=

USA.gov is the U.S. government's official web portal to all federal, state and local government web resources and services.